Samus Swan — 9HA2333 — position and weather

sailwx.info

Track history (hours):
 
Tides and Currents Weather Stations Pressure Air Temp Water Temp Dewpoint Dewpoint Depression Visibility Wind Speed Wind Dir Waves Ship Positions

Samus Swan

Last reported at 2016-Jun-01 23:14 UTC. Time now 2016-Jun-27 22:23 UTC.
Position N 16°51' W 061°03'.
Warning: this ship's position is 25 days out of date.

Length 106 m; draft 7.2 m.

Type: Tanker. MMSI: 248363000.

Date/timePositionNaut miles runAvg speedWind from/ knotsBaromVisibWave heightAir tempDewpointWater temp
2016-Jun-01 23:14N 16°51' W 061°03'6 9.4
2016-Jun-01 22:34N 16°51' W 061°10'9 9.1
2016-Jun-01 21:34N 16°51' W 061°20'9 8.9
2016-Jun-01 20:33N 16°48' W 061°29'10 9.7
2016-Jun-01 19:33N 16°44' W 061°38'10 9.9
2016-Jun-01 18:33N 16°39' W 061°47'10 9.9
2016-Jun-01 17:33N 16°34' W 061°56'1010.3
2016-Jun-01 16:33N 16°30' W 062°05'106 5.9
2016-May-31 22:34N 18°00' W 063°04'1 1.2
2016-May-31 21:30N 18°00' W 063°05'0 0.0
2016-May-31 20:33N 18°00' W 063°05'0 0.0
2016-May-31 19:24N 18°00' W 063°05'0 0.0
2016-May-31 17:33N 18°00' W 063°05'0 0.0
2016-May-31 16:24N 18°00' W 063°05'0 0.0
2016-May-31 15:24N 18°00' W 063°05'0 0.0
2016-May-31 14:27N 18°00' W 063°05'0 0.0
2016-May-31 12:24N 18°00' W 063°05'0 0.0
2016-May-31 11:30N 18°00' W 063°05'0 0.0
2016-May-31 09:30N 18°00' W 063°05'0 0.0
2016-May-31 08:27N 18°00' W 063°05'0 0.0
2016-May-31 07:33N 18°00' W 063°05'0 0.0
2016-May-31 06:33N 18°00' W 063°05'0 0.0
2016-May-31 04:30N 18°00' W 063°05'0 0.0
2016-May-31 03:33N 18°00' W 063°05'0 0.0
2016-May-31 02:30N 18°00' W 063°05'0 0.0
2016-May-31 01:18N 18°00' W 063°05'0 0.0
2016-May-31 00:33N 18°00' W 063°05'0 0.0
2016-May-30 23:33N 18°00' W 063°05'0 0.0
2016-May-30 22:24N 18°00' W 063°05'0 0.0
2016-May-30 21:27N 18°00' W 063°05'0 0.0
2016-May-30 20:27N 18°00' W 063°05'0 0.0
2016-May-30 19:27N 18°00' W 063°05'0 0.0
2016-May-30 18:30N 18°00' W 063°05'0 0.0
2016-May-30 17:30N 18°00' W 063°05'0 0.0
2016-May-30 16:30N 18°00' W 063°05'0 0.0
2016-May-30 15:30N 18°00' W 063°05'0 0.0
2016-May-30 14:33N 18°00' W 063°05'0 0.0
2016-May-30 13:33N 18°00' W 063°05'0 0.0
2016-May-30 12:33N 18°00' W 063°05'0 0.0
2016-May-30 11:21N 18°00' W 063°05'0 0.0
2016-May-30 10:33N 18°00' W 063°05'0 0.0
2016-May-30 09:33N 18°00' W 063°05'0 0.0
2016-May-30 08:24N 18°00' W 063°05'0 0.0
2016-May-30 07:28N 18°00' W 063°05'0 0.0
2016-May-30 06:27N 18°00' W 063°05'0 0.0
2016-May-30 05:28N 18°00' W 063°05'0 0.0
2016-May-30 04:31N 18°00' W 063°05'0 0.0
2016-May-30 03:30N 18°00' W 063°05'0 0.0
2016-May-30 02:27N 18°00' W 063°05'0 0.0
2016-May-30 00:30N 18°00' W 063°05'0 0.0
2016-May-29 23:33N 18°00' W 063°05'0 0.0
2016-May-29 22:33N 18°00' W 063°05'0 0.0
2016-May-29 21:19N 18°00' W 063°05'0 0.0
2016-May-29 20:33N 18°00' W 063°05'0 0.0
2016-May-29 19:24N 18°00' W 063°05'0 0.0
2016-May-29 18:21N 18°00' W 063°05'0 0.0
2016-May-29 17:27N 18°00' W 063°05'0 0.0
2016-May-29 16:24N 18°00' W 063°05'0 0.0
2016-May-29 15:28N 18°00' W 063°05'0 0.0
2016-May-29 14:27N 18°00' W 063°05'0 0.0
2016-May-29 13:27N 18°00' W 063°05'0 0.0
2016-May-29 12:33N 18°00' W 063°05'0 0.0
2016-May-29 11:31N 18°00' W 063°05'0 0.0
2016-May-29 10:30N 18°00' W 063°05'0 0.0
2016-May-29 09:30N 18°00' W 063°05'0 0.0
2016-May-29 08:33N 18°00' W 063°05'0 0.0
2016-May-29 07:33N 18°00' W 063°05'0 0.0
2016-May-29 06:33N 18°00' W 063°05'0 0.0
2016-May-29 05:24N 18°00' W 063°05'0 0.0
2016-May-29 04:24N 18°00' W 063°05'0 0.0
2016-May-29 03:27N 18°00' W 063°05'0 0.0
2016-May-29 02:09N 18°00' W 063°05'0 0.0
2016-May-29 01:30N 18°00' W 063°05'0 0.0
2016-May-29 00:30N 18°00' W 063°05'0 0.0
2016-May-28 23:27N 18°00' W 063°05'0 0.0
2016-May-28 22:33N 18°00' W 063°05'0 0.0
2016-May-28 21:33N 18°00' W 063°05'0 0.0
2016-May-28 20:33N 18°00' W 063°05'0 0.0
2016-May-28 19:33N 18°00' W 063°05'0 0.0
2016-May-28 18:06N 18°00' W 063°05'0 0.0
2016-May-28 17:33N 18°00' W 063°05'0 0.0
2016-May-28 16:33N 18°00' W 063°05'0 0.0
2016-May-28 15:27N 18°00' W 063°05'1 0.7
2016-May-28 14:33N 18°00' W 063°06'1110.9
2016-May-28 13:32N 18°02' W 063°17'1211.6
2016-May-28 12:32N 18°09' W 063°27'  
Track history (hours):
 
Tides and Currents Weather Stations Pressure Air Temp Water Temp Dewpoint Dewpoint Depression Visibility Wind Speed Wind Dir Waves Ship Positions

Samus Swan

Last reported at 2016-Jun-01 23:14 UTC. Time now 2016-Jun-27 22:23 UTC.
Position N 16°51' W 061°03'.
Warning: this ship's position is 25 days out of date.

Length 106 m; draft 7.2 m.

Type: Tanker. MMSI: 248363000.

Date/timePositionNaut miles runAvg speedWind from/ knotsBaromVisibWave heightAir tempDewpointWater temp
2016-Jun-01 23:14N 16°51' W 061°03'6 9.4
2016-Jun-01 22:34N 16°51' W 061°10'9 9.1
2016-Jun-01 21:34N 16°51' W 061°20'9 8.9
2016-Jun-01 20:33N 16°48' W 061°29'10 9.7
2016-Jun-01 19:33N 16°44' W 061°38'10 9.9
2016-Jun-01 18:33N 16°39' W 061°47'10 9.9
2016-Jun-01 17:33N 16°34' W 061°56'1010.3
2016-Jun-01 16:33N 16°30' W 062°05'106 5.9
2016-May-31 22:34N 18°00' W 063°04'1 1.2
2016-May-31 21:30N 18°00' W 063°05'0 0.0
2016-May-31 20:33N 18°00' W 063°05'0 0.0
2016-May-31 19:24N 18°00' W 063°05'0 0.0
2016-May-31 17:33N 18°00' W 063°05'0 0.0
2016-May-31 16:24N 18°00' W 063°05'0 0.0
2016-May-31 15:24N 18°00' W 063°05'0 0.0
2016-May-31 14:27N 18°00' W 063°05'0 0.0
2016-May-31 12:24N 18°00' W 063°05'0 0.0
2016-May-31 11:30N 18°00' W 063°05'0 0.0
2016-May-31 09:30N 18°00' W 063°05'0 0.0
2016-May-31 08:27N 18°00' W 063°05'0 0.0
2016-May-31 07:33N 18°00' W 063°05'0 0.0
2016-May-31 06:33N 18°00' W 063°05'0 0.0
2016-May-31 04:30N 18°00' W 063°05'0 0.0
2016-May-31 03:33N 18°00' W 063°05'0 0.0
2016-May-31 02:30N 18°00' W 063°05'0 0.0
2016-May-31 01:18N 18°00' W 063°05'0 0.0
2016-May-31 00:33N 18°00' W 063°05'0 0.0
2016-May-30 23:33N 18°00' W 063°05'0 0.0
2016-May-30 22:24N 18°00' W 063°05'0 0.0
2016-May-30 21:27N 18°00' W 063°05'0 0.0
2016-May-30 20:27N 18°00' W 063°05'0 0.0
2016-May-30 19:27N 18°00' W 063°05'0 0.0
2016-May-30 18:30N 18°00' W 063°05'0 0.0
2016-May-30 17:30N 18°00' W 063°05'0 0.0
2016-May-30 16:30N 18°00' W 063°05'0 0.0
2016-May-30 15:30N 18°00' W 063°05'0 0.0
2016-May-30 14:33N 18°00' W 063°05'0 0.0
2016-May-30 13:33N 18°00' W 063°05'0 0.0
2016-May-30 12:33N 18°00' W 063°05'0 0.0
2016-May-30 11:21N 18°00' W 063°05'0 0.0
2016-May-30 10:33N 18°00' W 063°05'0 0.0
2016-May-30 09:33N 18°00' W 063°05'0 0.0
2016-May-30 08:24N 18°00' W 063°05'0 0.0
2016-May-30 07:28N 18°00' W 063°05'0 0.0
2016-May-30 06:27N 18°00' W 063°05'0 0.0
2016-May-30 05:28N 18°00' W 063°05'0 0.0
2016-May-30 04:31N 18°00' W 063°05'0 0.0
2016-May-30 03:30N 18°00' W 063°05'0 0.0
2016-May-30 02:27N 18°00' W 063°05'0 0.0
2016-May-30 00:30N 18°00' W 063°05'0 0.0
2016-May-29 23:33N 18°00' W 063°05'0 0.0
2016-May-29 22:33N 18°00' W 063°05'0 0.0
2016-May-29 21:19N 18°00' W 063°05'0 0.0
2016-May-29 20:33N 18°00' W 063°05'0 0.0
2016-May-29 19:24N 18°00' W 063°05'0 0.0
2016-May-29 18:21N 18°00' W 063°05'0 0.0
2016-May-29 17:27N 18°00' W 063°05'0 0.0
2016-May-29 16:24N 18°00' W 063°05'0 0.0
2016-May-29 15:28N 18°00' W 063°05'0 0.0
2016-May-29 14:27N 18°00' W 063°05'0 0.0
2016-May-29 13:27N 18°00' W 063°05'0 0.0
2016-May-29 12:33N 18°00' W 063°05'0 0.0
2016-May-29 11:31N 18°00' W 063°05'0 0.0
2016-May-29 10:30N 18°00' W 063°05'0 0.0
2016-May-29 09:30N 18°00' W 063°05'0 0.0
2016-May-29 08:33N 18°00' W 063°05'0 0.0
2016-May-29 07:33N 18°00' W 063°05'0 0.0
2016-May-29 06:33N 18°00' W 063°05'0 0.0
2016-May-29 05:24N 18°00' W 063°05'0 0.0
2016-May-29 04:24N 18°00' W 063°05'0 0.0
2016-May-29 03:27N 18°00' W 063°05'0 0.0
2016-May-29 02:09N 18°00' W 063°05'0 0.0
2016-May-29 01:30N 18°00' W 063°05'0 0.0
2016-May-29 00:30N 18°00' W 063°05'0 0.0
2016-May-28 23:27N 18°00' W 063°05'0 0.0
2016-May-28 22:33N 18°00' W 063°05'0 0.0
2016-May-28 21:33N 18°00' W 063°05'0 0.0
2016-May-28 20:33N 18°00' W 063°05'0 0.0
2016-May-28 19:33N 18°00' W 063°05'0 0.0
2016-May-28 18:06N 18°00' W 063°05'0 0.0
2016-May-28 17:33N 18°00' W 063°05'0 0.0
2016-May-28 16:33N 18°00' W 063°05'0 0.0
2016-May-28 15:27N 18°00' W 063°05'1 0.7
2016-May-28 14:33N 18°00' W 063°06'1110.9
2016-May-28 13:32N 18°02' W 063°17'1211.6
2016-May-28 12:32N 18°09' W 063°27'  

Dump ship's entire track history